Terminal Aerodrome Forecast
Issued by NWS

Home | Current Version | Previous Version | Graphics & Text | Print | Product List | Glossary Off
Versions: 1 2 3 4 5 6 7 8 9 10 11 12 13 14 15 16 17 18 19 20

000
FTUS43 KGRB 281100 RRA
TAFMTW
TAF
KMTW 281145Z 2812/2912 28010KT P6SM SKC
     FM281800 27009KT P6SM SCT030 BKN060
     FM290300 34007KT P6SM SCT070 BKN250=

USA.gov is the U.S. government's official web portal to all federal, state and local government web resources and services.